Skip Navigation Links
NOAA logo - Click to go to the NOAA homepage
NOAA's National Weather Service
Alaska Aviation Weather Unit
  NWS logo - Click to go to the NWS homepage
Left Navbar Graphic     19 AKDT = 03 GMT

   
NOAA is celebrating 200 years of science, service, and stewardship. Visit the NOAA 200th celebration Web site to learn more.
USA.gov is the U.S. Government's official Web portal to all Federal, state and local government Web resources and services.
Facebook
NWS on Facebook

Important Change Regarding the AAWU Web Presence

 

Over the last several months, the AAWU has been working to navigate its webpages to a nationally supported server. Security, as well as other needs, have necessitated the change.  We have been given an extension for the site changeover while we diligently work at addressing feedback received. As of July 14, 2017, aawu.arh.noaa.gov will be discontinued. The new AAWU web address is weather.gov/aawu. It is now live and will run in-parallel with the old site until it is discontinued on July 14, 2017. Please continue to send any feedback or questions regarding the new webpages to nws.ar.aawu.webauthors@noaa.gov.  Thank you for your patience during this time of transition.
AAWU Home :: Display TAF Add Bookmark
METAR PAHC 282156Z AUTO VRB06KT 10SM -RA FEW031 OVC039 13/08 A2975 RMK
     AO2 RAB31 SLP079 P0000 T01330078=

METAR PAHC 282256Z AUTO 15005G17KT 10SM -RA SCT039 OVC055 13/08 A2976
     RMK AO2 RAE2159B39 SLP083 P0000 T01330083=

METAR PAHC 282356Z AUTO VRB05KT 10SM -RA BKN035 BKN042 OVC049 13/09
     A2977 RMK AO2 SLP085 P0000 60000 T01330089 10139 20111
     53007=

METAR PAHC 290056Z AUTO VRB04KT 10SM -RA SCT033 OVC048 13/08 A2978 RMK
     AO2 SLP089 P0000 T01330083=

METAR PAHC 290156Z AUTO 17006KT 10SM -RA OVC060 12/09 A2979 RMK AO2
 SLP092 P0000 T01220089=

METAR PAHC 290256Z AUTO VRB03KT 10SM -RA BKN035 OVC044 12/09 A2979 RMK
     AO2 SLP094 P0001 60001 T01170094 51009=


NOAA's National Weather Service
Alaska Aviation Weather Unit
6930 Sand Lake Road
Anchorage, AK 99502-1845
Disclaimer
Credits
Glossary
Privacy Policy
About Us
Career Opportunities
Contact AAWU Internet Services Site last modified: April, 17th 2012